sensor_id;sensor_type;location;lat;lon;timestamp;pressure;altitude;pressure_sealevel;temperature;humidity
76044;BME280;64740;34.694;33.088;2023-05-09T00:01:50;1036.5;;;22.6;49.9
76044;BME280;64740;34.694;33.088;2023-05-09T00:06:28;1036.5;;;22.6;50
76044;BME280;64740;34.694;33.088;2023-05-09T00:11:43;1036.6;;;22.6;50.1
76044;BME280;64740;34.694;33.088;2023-05-09T00:17:02;1036.6;;;22.6;49.8
76044;BME280;64740;34.694;33.088;2023-05-09T00:21:29;1036.6;;;22.6;49.9
76044;BME280;64740;34.694;33.088;2023-05-09T00:26:36;1036.6;;;22.5;49.8
76044;BME280;64740;34.694;33.088;2023-05-09T00:32:03;1036.6;;;22.5;49.8
76044;BME280;64740;34.694;33.088;2023-05-09T00:36:18;1036.6;;;22.5;49.6
76044;BME280;64740;34.694;33.088;2023-05-09T00:41:36;1036.6;;;22.4;49.6
76044;BME280;64740;34.694;33.088;2023-05-09T00:46:40;1036.6;;;22.4;49.7
76044;BME280;64740;34.694;33.088;2023-05-09T00:52:01;1036.6;;;22.4;49.7
76044;BME280;64740;34.694;33.088;2023-05-09T00:56:20;1036.6;;;22.3;49.7
76044;BME280;64740;34.694;33.088;2023-05-09T01:01:38;1036.6;;;22.3;49.7
76044;BME280;64740;34.694;33.088;2023-05-09T01:06:19;1036.6;;;22.1;49.7
76044;BME280;64740;34.694;33.088;2023-05-09T01:11:52;1036.6;;;22;50
76044;BME280;64740;34.694;33.088;2023-05-09T01:16:40;1036.6;;;22;50
76044;BME280;64740;34.694;33.088;2023-05-09T01:21:30;1036.7;;;22;50
76044;BME280;64740;34.694;33.088;2023-05-09T01:26:42;1036.6;;;22.1;50.1
76044;BME280;64740;34.694;33.088;2023-05-09T01:31:30;1036.6;;;22.1;49.9
76044;BME280;64740;34.694;33.088;2023-05-09T01:37:00;1036.5;;;22.1;49.8
76044;BME280;64740;34.694;33.088;2023-05-09T01:41:53;1036.6;;;22;49.9
76044;BME280;64740;34.694;33.088;2023-05-09T01:46:19;1036.7;;;22;49.8
76044;BME280;64740;34.694;33.088;2023-05-09T01:52:02;1036.7;;;22.1;50
76044;BME280;64740;34.694;33.088;2023-05-09T01:56:38;1036.7;;;22.1;49.9
76044;BME280;64740;34.694;33.088;2023-05-09T02:01:30;1036.7;;;22.2;49.5
76044;BME280;64740;34.694;33.088;2023-05-09T02:06:51;1036.8;;;22.1;49.6
76044;BME280;64740;34.694;33.088;2023-05-09T02:11:46;1036.8;;;22.1;49.5
76044;BME280;64740;34.694;33.088;2023-05-09T02:16:19;1036.8;;;22.1;49.4
76044;BME280;64740;34.694;33.088;2023-05-09T02:22:01;1036.8;;;22;49.5
76044;BME280;64740;34.694;33.088;2023-05-09T02:27:01;1036.8;;;21.9;49.6
76044;BME280;64740;34.694;33.088;2023-05-09T02:31:53;1036.9;;;21.8;49.6
76044;BME280;64740;34.694;33.088;2023-05-09T02:36:37;1037;;;21.7;49.7
76044;BME280;64740;34.694;33.088;2023-05-09T02:41:53;1037;;;21.5;49.9
76044;BME280;64740;34.694;33.088;2023-05-09T02:46:51;1037;;;21.6;50.2
76044;BME280;64740;34.694;33.088;2023-05-09T02:51:47;1037;;;21.6;50
76044;BME280;64740;34.694;33.088;2023-05-09T02:56:19;1037.2;;;21.4;50.2
76044;BME280;64740;34.694;33.088;2023-05-09T03:01:59;1037.2;;;21.3;50.3
76044;BME280;64740;34.694;33.088;2023-05-09T03:06:51;1037.3;;;21.3;50.5
76044;BME280;64740;34.694;33.088;2023-05-09T03:11:19;1037.3;;;21.2;50.8
76044;BME280;64740;34.694;33.088;2023-05-09T03:16:19;1037.3;;;21.1;50.9
76044;BME280;64740;34.694;33.088;2023-05-09T03:21:29;1037.3;;;21.2;50.9
76044;BME280;64740;34.694;33.088;2023-05-09T03:26:41;1037.3;;;21.3;50.9
76044;BME280;64740;34.694;33.088;2023-05-09T03:31:53;1037.3;;;21.4;50.8
76044;BME280;64740;34.694;33.088;2023-05-09T03:36:53;1037.4;;;21.4;50.8
76044;BME280;64740;34.694;33.088;2023-05-09T03:41:19;1037.4;;;21.4;50.8
76044;BME280;64740;34.694;33.088;2023-05-09T03:47:01;1037.4;;;21.6;50.6
76044;BME280;64740;34.694;33.088;2023-05-09T03:51:39;1037.3;;;21.7;50.4
76044;BME280;64740;34.694;33.088;2023-05-09T03:56:19;1037.3;;;21.9;50.1
76044;BME280;64740;34.694;33.088;2023-05-09T04:01:47;1037.5;;;22;50
76044;BME280;64740;34.694;33.088;2023-05-09T04:06:59;1037.6;;;22.2;49.7
76044;BME280;64740;34.694;33.088;2023-05-09T04:11:43;1037.6;;;22.4;49.7
76044;BME280;64740;34.694;33.088;2023-05-09T04:16:45;1037.6;;;22.5;49.5
76044;BME280;64740;34.694;33.088;2023-05-09T04:21:19;1037.6;;;22.7;49.3
76044;BME280;64740;34.694;33.088;2023-05-09T04:26:19;1037.6;;;22.8;49.2
76044;BME280;64740;34.694;33.088;2023-05-09T04:31:39;1037.6;;;22.9;49.1
76044;BME280;64740;34.694;33.088;2023-05-09T04:36:39;1037.6;;;23.1;49.3
76044;BME280;64740;34.694;33.088;2023-05-09T04:42:03;1037.6;;;23.1;49.7
76044;BME280;64740;34.694;33.088;2023-05-09T04:46:53;1037.7;;;23.2;50
76044;BME280;64740;34.694;33.088;2023-05-09T04:51:19;1037.8;;;23.3;50.2
76044;BME280;64740;34.694;33.088;2023-05-09T04:57:03;1037.7;;;23.4;50.3
76044;BME280;64740;34.694;33.088;2023-05-09T05:01:19;1037.6;;;23.6;50.7
76044;BME280;64740;34.694;33.088;2023-05-09T05:06:41;1037.7;;;23.7;51.3
76044;BME280;64740;34.694;33.088;2023-05-09T05:11:39;1037.6;;;23.9;52.9
76044;BME280;64740;34.694;33.088;2023-05-09T05:17:01;1037.6;;;24;53.4
76044;BME280;64740;34.694;33.088;2023-05-09T05:21:19;1037.6;;;24.2;53.7
76044;BME280;64740;34.694;33.088;2023-05-09T05:27:01;1037.6;;;24.3;54.2
76044;BME280;64740;34.694;33.088;2023-05-09T05:32:01;1037.6;;;24.4;54.5
76044;BME280;64740;34.694;33.088;2023-05-09T05:36:21;1037.5;;;24.5;54.4
76044;BME280;64740;34.694;33.088;2023-05-09T05:41:19;1037.5;;;24.5;54.5
76044;BME280;64740;34.694;33.088;2023-05-09T05:46:53;1037.5;;;24.6;54.3
76044;BME280;64740;34.694;33.088;2023-05-09T05:51:49;1037.5;;;24.7;54.1
76044;BME280;64740;34.694;33.088;2023-05-09T05:56:21;1037.6;;;24.8;53.7
76044;BME280;64740;34.694;33.088;2023-05-09T06:01:19;1037.6;;;24.9;54
76044;BME280;64740;34.694;33.088;2023-05-09T06:06:59;1037.6;;;24.9;54.1
76044;BME280;64740;34.694;33.088;2023-05-09T06:11:51;1037.6;;;24.9;54.8
76044;BME280;64740;34.694;33.088;2023-05-09T06:16:31;1037.6;;;24.8;55.3
76044;BME280;64740;34.694;33.088;2023-05-09T06:21:43;1037.7;;;24.8;55.7
76044;BME280;64740;34.694;33.088;2023-05-09T06:26:49;1037.7;;;24.7;56
76044;BME280;64740;34.694;33.088;2023-05-09T06:31:39;1037.7;;;24.6;56.2
76044;BME280;64740;34.694;33.088;2023-05-09T06:36:55;1037.8;;;24.5;56.5
76044;BME280;64740;34.694;33.088;2023-05-09T06:41:53;1037.8;;;24.5;56.9
76044;BME280;64740;34.694;33.088;2023-05-09T06:46:27;1037.8;;;24.5;56.8
76044;BME280;64740;34.694;33.088;2023-05-09T06:52:05;1037.8;;;24.6;56.9
76044;BME280;64740;34.694;33.088;2023-05-09T06:56:41;1037.7;;;24.7;56.7
76044;BME280;64740;34.694;33.088;2023-05-09T07:01:31;1037.8;;;24.8;56.6
76044;BME280;64740;34.694;33.088;2023-05-09T07:06:49;1037.8;;;25;56.1
76044;BME280;64740;34.694;33.088;2023-05-09T07:12:03;1037.8;;;25.1;56.2
76044;BME280;64740;34.694;33.088;2023-05-09T07:16:43;1037.7;;;25.1;56
76044;BME280;64740;34.694;33.088;2023-05-09T07:21:51;1037.7;;;25.2;55.6
76044;BME280;64740;34.694;33.088;2023-05-09T07:26:49;1037.8;;;25.4;54.9
76044;BME280;64740;34.694;33.088;2023-05-09T07:31:55;1037.8;;;25.5;54.7
76044;BME280;64740;34.694;33.088;2023-05-09T07:36:19;1037.8;;;25.6;54.5
76044;BME280;64740;34.694;33.088;2023-05-09T07:41:19;1037.8;;;25.6;54.3
76044;BME280;64740;34.694;33.088;2023-05-09T07:47:03;1037.8;;;25.5;54.5
76044;BME280;64740;34.694;33.088;2023-05-09T07:52:03;1037.8;;;25.4;54.8
76044;BME280;64740;34.694;33.088;2023-05-09T07:56:19;1037.8;;;25.4;55.1
76044;BME280;64740;34.694;33.088;2023-05-09T08:02:03;1037.7;;;25.3;55.3
76044;BME280;64740;34.694;33.088;2023-05-09T08:06:55;1037.7;;;25.4;55
76044;BME280;64740;34.694;33.088;2023-05-09T08:11:19;1037.8;;;25.5;54.8
76044;BME280;64740;34.694;33.088;2023-05-09T08:16:51;1037.8;;;25.5;54.9
76044;BME280;64740;34.694;33.088;2023-05-09T08:22:03;1037.8;;;25.5;54.7
76044;BME280;64740;34.694;33.088;2023-05-09T08:26:31;1037.7;;;25.5;54.8
76044;BME280;64740;34.694;33.088;2023-05-09T08:32:03;1037.7;;;25.5;54.9
76044;BME280;64740;34.694;33.088;2023-05-09T08:37:03;1037.7;;;25.6;54.8
76044;BME280;64740;34.694;33.088;2023-05-09T08:41:22;1037.8;;;25.7;55
76044;BME280;64740;34.694;33.088;2023-05-09T08:46:50;1037.7;;;25.6;55.2
76044;BME280;64740;34.694;33.088;2023-05-09T08:51:55;1037.7;;;25.6;55.5
76044;BME280;64740;34.694;33.088;2023-05-09T08:56:43;1037.6;;;25.6;55.6
76044;BME280;64740;34.694;33.088;2023-05-09T09:01:49;1037.6;;;25.6;55.6
76044;BME280;64740;34.694;33.088;2023-05-09T09:06:43;1037.6;;;25.7;55.6
76044;BME280;64740;34.694;33.088;2023-05-09T09:12:03;1037.6;;;25.7;55.7
76044;BME280;64740;34.694;33.088;2023-05-09T09:16:49;1037.6;;;25.8;55.6
76044;BME280;64740;34.694;33.088;2023-05-09T09:21:29;1037.6;;;25.9;55.7
76044;BME280;64740;34.694;33.088;2023-05-09T09:26:44;1037.6;;;25.9;55.3
76044;BME280;64740;34.694;33.088;2023-05-09T09:31:51;1037.6;;;26;55.3
76044;BME280;64740;34.694;33.088;2023-05-09T09:36:31;1037.6;;;25.9;55.5
76044;BME280;64740;34.694;33.088;2023-05-09T09:42:10;1037.7;;;26;55.4
76044;BME280;64740;34.694;33.088;2023-05-09T09:46:55;1037.7;;;26;55.1
76044;BME280;64740;34.694;33.088;2023-05-09T09:51:25;1037.8;;;26;55.1
76044;BME280;64740;34.694;33.088;2023-05-09T09:57:03;1037.8;;;26;55.1
76044;BME280;64740;34.694;33.088;2023-05-09T10:01:57;1037.8;;;26.3;55
76044;BME280;64740;34.694;33.088;2023-05-09T10:06:31;1037.7;;;26.6;54.5
76044;BME280;64740;34.694;33.088;2023-05-09T10:11:49;1037.7;;;26.8;53.7
76044;BME280;64740;34.694;33.088;2023-05-09T10:17:03;1037.6;;;27.1;52.9
76044;BME280;64740;34.694;33.088;2023-05-09T10:21:43;1037.6;;;27.4;52.2
76044;BME280;64740;34.694;33.088;2023-05-09T10:26:51;1037.6;;;27.6;51
76044;BME280;64740;34.694;33.088;2023-05-09T10:31:49;1037.6;;;27.9;50.8
76044;BME280;64740;34.694;33.088;2023-05-09T10:36:55;1037.6;;;28;50.6
76044;BME280;64740;34.694;33.088;2023-05-09T10:41:25;1037.5;;;27.9;50.7
76044;BME280;64740;34.694;33.088;2023-05-09T10:46:19;1037.5;;;27.6;51.4
76044;BME280;64740;34.694;33.088;2023-05-09T10:52:03;1037.5;;;27.6;51.8
76044;BME280;64740;34.694;33.088;2023-05-09T10:57:04;1037.5;;;27.7;52
76044;BME280;64740;34.694;33.088;2023-05-09T11:01:35;1037.5;;;28;51.3
76044;BME280;64740;34.694;33.088;2023-05-09T11:07:03;1037.4;;;28.5;50.4
76044;BME280;64740;34.694;33.088;2023-05-09T11:11:33;1037.4;;;28.8;49.9
76044;BME280;64740;34.694;33.088;2023-05-09T11:16:19;1037.4;;;28.9;49.4
76044;BME280;64740;34.694;33.088;2023-05-09T11:27:03;1037.3;;;29.1;47.7
76044;BME280;64740;34.694;33.088;2023-05-09T11:31:59;1037.2;;;29.3;47.2
76044;BME280;64740;34.694;33.088;2023-05-09T11:36:20;1037.2;;;29.4;47.3
76044;BME280;64740;34.694;33.088;2023-05-09T11:42:03;1037.2;;;29.1;47.4
76044;BME280;64740;34.694;33.088;2023-05-09T11:46:19;1037.2;;;28.7;48
76044;BME280;64740;34.694;33.088;2023-05-09T11:51:37;1037.2;;;28.4;48.1
76044;BME280;64740;34.694;33.088;2023-05-09T11:56:31;1037.2;;;28.5;47.5
76044;BME280;64740;34.694;33.088;2023-05-09T12:02:03;1037.1;;;28.8;45.8
76044;BME280;64740;34.694;33.088;2023-05-09T12:06:49;1037;;;28.8;44.8
76044;BME280;64740;34.694;33.088;2023-05-09T12:11:46;1036.9;;;28.7;44.5
76044;BME280;64740;34.694;33.088;2023-05-09T12:17:03;1036.8;;;28.8;44.4
76044;BME280;64740;34.694;33.088;2023-05-09T12:21:54;1036.8;;;28.9;45.4
76044;BME280;64740;34.694;33.088;2023-05-09T12:26:49;1036.8;;;28.8;46.4
76044;BME280;64740;34.694;33.088;2023-05-09T12:31:43;1036.7;;;29.3;46
76044;BME280;64740;34.694;33.088;2023-05-09T12:36:37;1036.6;;;30;45.1
76044;BME280;64740;34.694;33.088;2023-05-09T12:41:31;1036.6;;;30.1;43.8
76044;BME280;64740;34.694;33.088;2023-05-09T12:47:03;1036.5;;;30.3;43.6
76044;BME280;64740;34.694;33.088;2023-05-09T12:51:55;1036.6;;;30.4;43.4
76044;BME280;64740;34.694;33.088;2023-05-09T12:56:19;1036.5;;;30.5;43.2
76044;BME280;64740;34.694;33.088;2023-05-09T13:02:03;1036.4;;;30.7;42.9
76044;BME280;64740;34.694;33.088;2023-05-09T13:06:19;1036.4;;;30.7;42.9
76044;BME280;64740;34.694;33.088;2023-05-09T13:11:31;1036.3;;;30.9;42.7
76044;BME280;64740;34.694;33.088;2023-05-09T13:16:51;1036.3;;;30.9;42.2
76044;BME280;64740;34.694;33.088;2023-05-09T13:22:01;1036.2;;;30.8;42.1
76044;BME280;64740;34.694;33.088;2023-05-09T13:26:31;1036.1;;;30.9;41.7
76044;BME280;64740;34.694;33.088;2023-05-09T13:32:03;1036.1;;;30.9;41.5
76044;BME280;64740;34.694;33.088;2023-05-09T13:37:03;1036.1;;;30.6;40.9
76044;BME280;64740;34.694;33.088;2023-05-09T13:41:55;1036.2;;;30.1;41
76044;BME280;64740;34.694;33.088;2023-05-09T13:46:31;1036.1;;;29.4;41.8
76044;BME280;64740;34.694;33.088;2023-05-09T13:51:55;1036.1;;;28.8;42.5
76044;BME280;64740;34.694;33.088;2023-05-09T13:56:53;1036.2;;;28.2;43.5
76044;BME280;64740;34.694;33.088;2023-05-09T14:01:49;1036.2;;;27.9;44.3
76044;BME280;64740;34.694;33.088;2023-05-09T14:06:43;1036.2;;;27.7;43.6
76044;BME280;64740;34.694;33.088;2023-05-09T14:12:03;1036.2;;;27.9;43.4
76044;BME280;64740;34.694;33.088;2023-05-09T14:16:39;1036.1;;;28.1;42.8
76044;BME280;64740;34.694;33.088;2023-05-09T14:21:19;1036.1;;;28.4;42.4
76044;BME280;64740;34.694;33.088;2023-05-09T14:26:31;1036;;;28.7;42.1
76044;BME280;64740;34.694;33.088;2023-05-09T14:31:49;1036;;;29;41.6
76044;BME280;64740;34.694;33.088;2023-05-09T14:36:31;1036;;;29.2;41.2
76044;BME280;64740;34.694;33.088;2023-05-09T14:41:55;1036;;;29.3;40.9
76044;BME280;64740;34.694;33.088;2023-05-09T14:46:55;1036;;;29.6;41.4
76044;BME280;64740;34.694;33.088;2023-05-09T14:51:39;1036;;;29.6;41.3
76044;BME280;64740;34.694;33.088;2023-05-09T14:57:03;1035.9;;;29.5;40.2
76044;BME280;64740;34.694;33.088;2023-05-09T15:01:29;1035.8;;;29.4;40
76044;BME280;64740;34.694;33.088;2023-05-09T15:06:39;1035.8;;;29.5;39.8
76044;BME280;64740;34.694;33.088;2023-05-09T15:11:49;1035.8;;;29.4;39.8
76044;BME280;64740;34.694;33.088;2023-05-09T15:17:03;1035.7;;;29.3;40.9
76044;BME280;64740;34.694;33.088;2023-05-09T15:21:43;1035.8;;;29.2;42.5
76044;BME280;64740;34.694;33.088;2023-05-09T15:26:51;1035.7;;;28.9;43.1
76044;BME280;64740;34.694;33.088;2023-05-09T15:31:49;1035.7;;;28.5;43.6
76044;BME280;64740;34.694;33.088;2023-05-09T15:36:45;1035.7;;;28.2;44.5
76044;BME280;64740;34.694;33.088;2023-05-09T15:41:37;1035.7;;;28;45.3
76044;BME280;64740;34.694;33.088;2023-05-09T15:46:31;1035.7;;;28;45.3
76044;BME280;64740;34.694;33.088;2023-05-09T15:52:03;1035.7;;;27.9;45.8
76044;BME280;64740;34.694;33.088;2023-05-09T15:57:03;1035.7;;;27.7;45.7
76044;BME280;64740;34.694;33.088;2023-05-09T16:01:31;1035.8;;;27.4;46
76044;BME280;64740;34.694;33.088;2023-05-09T16:07:03;1035.8;;;27.2;45.8
76044;BME280;64740;34.694;33.088;2023-05-09T16:11:41;1035.9;;;27;45.4
76044;BME280;64740;34.694;33.088;2023-05-09T16:16:19;1035.9;;;26.8;45.3
76044;BME280;64740;34.694;33.088;2023-05-09T16:21:51;1035.9;;;26.6;45.5
76044;BME280;64740;34.694;33.088;2023-05-09T16:27:03;1035.9;;;26.4;46.3
76044;BME280;64740;34.694;33.088;2023-05-09T16:31:31;1036;;;26.2;47
76044;BME280;64740;34.694;33.088;2023-05-09T16:36:49;1036;;;26;48.1
76044;BME280;64740;34.694;33.088;2023-05-09T16:42:03;1035.9;;;25.9;48.9
76044;BME280;64740;34.694;33.088;2023-05-09T16:46:55;1036;;;25.7;49.8
76044;BME280;64740;34.694;33.088;2023-05-09T16:51:25;1036;;;25.5;50.5
76044;BME280;64740;34.694;33.088;2023-05-09T16:56:55;1036.1;;;25.4;51.3
76044;BME280;64740;34.694;33.088;2023-05-09T17:01:51;1036.1;;;25.3;51.9
76044;BME280;64740;34.694;33.088;2023-05-09T17:06:49;1036.1;;;25.3;52.4
76044;BME280;64740;34.694;33.088;2023-05-09T17:11:19;1036.1;;;25.3;52.6
76044;BME280;64740;34.694;33.088;2023-05-09T17:17:03;1036.1;;;25.3;52.9
76044;BME280;64740;34.694;33.088;2023-05-09T17:21:51;1036;;;25.3;53.1
76044;BME280;64740;34.694;33.088;2023-05-09T17:26:31;1036;;;25.3;53.3
76044;BME280;64740;34.694;33.088;2023-05-09T17:31:19;1036;;;25.3;53.5
76044;BME280;64740;34.694;33.088;2023-05-09T17:36:51;1035.9;;;25.3;53.5
76044;BME280;64740;34.694;33.088;2023-05-09T17:41:33;1035.9;;;25.3;53.5
76044;BME280;64740;34.694;33.088;2023-05-09T17:46:57;1035.9;;;25.4;53.6
76044;BME280;64740;34.694;33.088;2023-05-09T17:51:57;1035.9;;;25.4;53.5
76044;BME280;64740;34.694;33.088;2023-05-09T17:56:21;1036;;;25.4;53.6
76044;BME280;64740;34.694;33.088;2023-05-09T18:02:05;1036;;;25.4;53.9
76044;BME280;64740;34.694;33.088;2023-05-09T18:06:31;1036.1;;;25.4;54.1
76044;BME280;64740;34.694;33.088;2023-05-09T18:11:33;1036.2;;;25.4;54.8
76044;BME280;64740;34.694;33.088;2023-05-09T18:16:51;1036.3;;;25.4;55.9
76044;BME280;64740;34.694;33.088;2023-05-09T18:21:53;1036.3;;;25.3;56.2
76044;BME280;64740;34.694;33.088;2023-05-09T18:26:43;1036.3;;;25.2;56.5
76044;BME280;64740;34.694;33.088;2023-05-09T18:31:53;1036.3;;;25.1;56.6
76044;BME280;64740;34.694;33.088;2023-05-09T18:36:49;1036.4;;;25;56.8
76044;BME280;64740;34.694;33.088;2023-05-09T18:41:55;1036.4;;;25;57.1
76044;BME280;64740;34.694;33.088;2023-05-09T18:46:21;1036.5;;;24.9;57.4
76044;BME280;64740;34.694;33.088;2023-05-09T18:51:37;1036.6;;;24.8;57.6
76044;BME280;64740;34.694;33.088;2023-05-09T18:57:05;1036.6;;;24.7;57.7
76044;BME280;64740;34.694;33.088;2023-05-09T19:02:05;1036.6;;;24.7;57.6
76044;BME280;64740;34.694;33.088;2023-05-09T19:06:33;1036.6;;;24.7;57.4
76044;BME280;64740;34.694;33.088;2023-05-09T19:12:05;1036.6;;;24.7;57.5
76044;BME280;64740;34.694;33.088;2023-05-09T19:16:21;1036.7;;;24.7;57.6
76044;BME280;64740;34.694;33.088;2023-05-09T19:21:33;1036.6;;;24.7;56.1
76044;BME280;64740;34.694;33.088;2023-05-09T19:26:21;1036.6;;;24.7;54.8
76044;BME280;64740;34.694;33.088;2023-05-09T19:32:05;1036.6;;;24.7;53.8
76044;BME280;64740;34.694;33.088;2023-05-09T19:36:31;1036.5;;;24.7;53
76044;BME280;64740;34.694;33.088;2023-05-09T19:41:33;1036.5;;;24.6;52.5
76044;BME280;64740;34.694;33.088;2023-05-09T19:47:05;1036.5;;;24.6;52.3
76044;BME280;64740;34.694;33.088;2023-05-09T19:51:21;1036.5;;;24.6;52.1
76044;BME280;64740;34.694;33.088;2023-05-09T19:56:39;1036.5;;;24.5;51.8
76044;BME280;64740;34.694;33.088;2023-05-09T20:01:31;1036.4;;;24.5;51.7
76044;BME280;64740;34.694;33.088;2023-05-09T20:07:05;1036.4;;;24.5;51.5
76044;BME280;64740;34.694;33.088;2023-05-09T20:11:41;1036.4;;;24.4;51.2
76044;BME280;64740;34.694;33.088;2023-05-09T20:16:43;1036.4;;;24.4;51.2
76044;BME280;64740;34.694;33.088;2023-05-09T20:22:05;1036.4;;;24.4;51.2
76044;BME280;64740;34.694;33.088;2023-05-09T20:26:53;1036.4;;;24.5;50.9
76044;BME280;64740;34.694;33.088;2023-05-09T20:31:33;1036.4;;;24.5;50.6
76044;BME280;64740;34.694;33.088;2023-05-09T20:36:45;1036.3;;;24.5;50.5
76044;BME280;64740;34.694;33.088;2023-05-09T20:41:51;1036.3;;;24.5;50.3
76044;BME280;64740;34.694;33.088;2023-05-09T20:46:39;1036.3;;;24.5;50.3
76044;BME280;64740;34.694;33.088;2023-05-09T20:52:05;1036.4;;;24.4;50.1
76044;BME280;64740;34.694;33.088;2023-05-09T20:56:57;1036.4;;;24.4;50
76044;BME280;64740;34.694;33.088;2023-05-09T21:01:21;1036.4;;;24.2;50
76044;BME280;64740;34.694;33.088;2023-05-09T21:07:05;1036.4;;;24.1;50
76044;BME280;64740;34.694;33.088;2023-05-09T21:11:29;1036.5;;;24;49.9
76044;BME280;64740;34.694;33.088;2023-05-09T21:16:33;1036.5;;;24;50.1
76044;BME280;64740;34.694;33.088;2023-05-09T21:21:47;1036.5;;;24;50
76044;BME280;64740;34.694;33.088;2023-05-09T21:27:03;1036.4;;;24;49.9
76044;BME280;64740;34.694;33.088;2023-05-09T21:31:55;1036.4;;;24.1;50
76044;BME280;64740;34.694;33.088;2023-05-09T21:36:53;1036.4;;;24.1;49.8
76044;BME280;64740;34.694;33.088;2023-05-09T21:41:49;1036.3;;;24.1;49.4
76044;BME280;64740;34.694;33.088;2023-05-09T21:46:55;1036.3;;;24.1;49
76044;BME280;64740;34.694;33.088;2023-05-09T21:51:45;1036.3;;;24.1;48.9
76044;BME280;64740;34.694;33.088;2023-05-09T21:56:41;1036.2;;;24.1;48.8
76044;BME280;64740;34.694;33.088;2023-05-09T22:02:01;1036.2;;;24.1;48.9
76044;BME280;64740;34.694;33.088;2023-05-09T22:07:01;1036.1;;;24;48.7
76044;BME280;64740;34.694;33.088;2023-05-09T22:11:29;1036.2;;;24;48.5
76044;BME280;64740;34.694;33.088;2023-05-09T22:17:05;1036.2;;;24;48.6
76044;BME280;64740;34.694;33.088;2023-05-09T22:21:21;1036.1;;;24;48
76044;BME280;64740;34.694;33.088;2023-05-09T22:26:33;1036.1;;;24;47.8
76044;BME280;64740;34.694;33.088;2023-05-09T22:31:45;1036.1;;;24;47.7
76044;BME280;64740;34.694;33.088;2023-05-09T22:36:51;1036.1;;;23.9;47.7
76044;BME280;64740;34.694;33.088;2023-05-09T22:41:21;1036;;;23.9;47.3
76044;BME280;64740;34.694;33.088;2023-05-09T22:46:27;1036;;;23.8;47.1
76044;BME280;64740;34.694;33.088;2023-05-09T22:52:05;1035.9;;;23.6;47.2
76044;BME280;64740;34.694;33.088;2023-05-09T22:56:31;1035.9;;;23.5;47.4
76044;BME280;64740;34.694;33.088;2023-05-09T23:01:21;1035.8;;;23.5;47.6
76044;BME280;64740;34.694;33.088;2023-05-09T23:06:43;1035.8;;;23.5;47.5
76044;BME280;64740;34.694;33.088;2023-05-09T23:12:06;1035.8;;;23.6;47.5
76044;BME280;64740;34.694;33.088;2023-05-09T23:16:51;1035.8;;;23.6;47.5
76044;BME280;64740;34.694;33.088;2023-05-09T23:21:21;1035.8;;;23.6;47.4
76044;BME280;64740;34.694;33.088;2023-05-09T23:26:21;1035.8;;;23.6;47.4
76044;BME280;64740;34.694;33.088;2023-05-09T23:31:45;1035.7;;;23.6;47.6
76044;BME280;64740;34.694;33.088;2023-05-09T23:36:21;1035.7;;;23.7;47.4
76044;BME280;64740;34.694;33.088;2023-05-09T23:41:21;1035.7;;;23.6;47.4
76044;BME280;64740;34.694;33.088;2023-05-09T23:46:37;1035.6;;;23.6;47.5
76044;BME280;64740;34.694;33.088;2023-05-09T23:51:49;1035.6;;;23.5;47.4
76044;BME280;64740;34.694;33.088;2023-05-09T23:57:03;1035.7;;;23.4;47.2
